sensor_id;sensor_type;location;lat;lon;timestamp;pressure;altitude;pressure_sealevel;temperature;humidity
23953;BME280;12163;49.316;6.092;2022-10-16T00:00:47;99109.66;;;16.54;88.23
23953;BME280;12163;49.316;6.092;2022-10-16T00:03:14;99108.53;;;16.55;88.24
23953;BME280;12163;49.316;6.092;2022-10-16T00:05:42;99106.94;;;16.54;88.17
23953;BME280;12163;49.316;6.092;2022-10-16T00:08:10;99115.13;;;16.54;87.88
23953;BME280;12163;49.316;6.092;2022-10-16T00:10:37;99130.31;;;16.55;87.67
23953;BME280;12163;49.316;6.092;2022-10-16T00:13:04;99127.94;;;16.54;87.89
23953;BME280;12163;49.316;6.092;2022-10-16T00:15:37;99124.88;;;16.55;88.05
23953;BME280;12163;49.316;6.092;2022-10-16T00:18:06;99129.19;;;16.56;88.08
23953;BME280;12163;49.316;6.092;2022-10-16T00:20:34;99141.22;;;16.55;87.87
23953;BME280;12163;49.316;6.092;2022-10-16T00:23:01;99129.53;;;16.55;87.99
23953;BME280;12163;49.316;6.092;2022-10-16T00:25:27;99121.69;;;16.53;87.87
23953;BME280;12163;49.316;6.092;2022-10-16T00:27:54;99128.28;;;16.52;87.56
23953;BME280;12163;49.316;6.092;2022-10-16T00:30:21;99131.00;;;16.52;87.23
23953;BME280;12163;49.316;6.092;2022-10-16T00:32:47;99127.13;;;16.53;87.32
23953;BME280;12163;49.316;6.092;2022-10-16T00:35:14;99126.22;;;16.49;87.16
23953;BME280;12163;49.316;6.092;2022-10-16T00:37:40;99128.94;;;16.49;87.27
23953;BME280;12163;49.316;6.092;2022-10-16T00:40:07;99132.44;;;16.50;87.41
23953;BME280;12163;49.316;6.092;2022-10-16T00:42:34;99130.06;;;16.48;87.65
23953;BME280;12163;49.316;6.092;2022-10-16T00:45:00;99128.47;;;16.47;86.67
23953;BME280;12163;49.316;6.092;2022-10-16T00:47:29;99130.28;;;16.43;85.82
23953;BME280;12163;49.316;6.092;2022-10-16T00:50:07;99127.56;;;16.43;85.94
23953;BME280;12163;49.316;6.092;2022-10-16T00:52:34;99132.34;;;16.46;85.62
23953;BME280;12163;49.316;6.092;2022-10-16T00:55:04;99128.34;;;16.44;85.75
23953;BME280;12163;49.316;6.092;2022-10-16T00:57:31;99128.34;;;16.44;85.73
23953;BME280;12163;49.316;6.092;2022-10-16T00:59:58;99125.28;;;16.45;86.17
23953;BME280;12163;49.316;6.092;2022-10-16T01:02:25;99109.75;;;16.46;86.05
23953;BME280;12163;49.316;6.092;2022-10-16T01:04:53;99117.44;;;16.44;85.81
23953;BME280;12163;49.316;6.092;2022-10-16T01:12:50;99138.81;;;16.33;85.47
23953;BME280;12163;49.316;6.092;2022-10-16T01:15:45;99145.59;;;16.27;86.01
23953;BME280;12163;49.316;6.092;2022-10-16T01:18:18;99151.03;;;16.27;86.28
23953;BME280;12163;49.316;6.092;2022-10-16T01:20:54;99147.84;;;16.25;86.79
23953;BME280;12163;49.316;6.092;2022-10-16T01:28:57;99152.63;;;16.28;86.43
23953;BME280;12163;49.316;6.092;2022-10-16T01:31:31;99154.88;;;16.26;85.97
23953;BME280;12163;49.316;6.092;2022-10-16T01:34:13;99151.69;;;16.24;86.65
23953;BME280;12163;49.316;6.092;2022-10-16T01:37:19;99176.38;;;16.19;86.31
23953;BME280;12163;49.316;6.092;2022-10-16T01:39:48;99158.59;;;16.22;85.98
23953;BME280;12163;49.316;6.092;2022-10-16T01:42:23;99155.09;;;16.21;86.58
23953;BME280;12163;49.316;6.092;2022-10-16T01:44:54;99150.75;;;16.20;86.00
23953;BME280;12163;49.316;6.092;2022-10-16T01:47:24;99163.72;;;16.23;86.22
23953;BME280;12163;49.316;6.092;2022-10-16T01:49:53;99150.09;;;16.23;85.79
23953;BME280;12163;49.316;6.092;2022-10-16T01:52:23;99153.16;;;16.22;85.95
23953;BME280;12163;49.316;6.092;2022-10-16T01:54:54;99161.63;;;16.20;86.30
23953;BME280;12163;49.316;6.092;2022-10-16T01:57:24;99164.03;;;16.22;85.91
23953;BME280;12163;49.316;6.092;2022-10-16T01:59:54;99173.34;;;16.21;86.02
23953;BME280;12163;49.316;6.092;2022-10-16T02:02:22;99175.25;;;16.20;85.93
23953;BME280;12163;49.316;6.092;2022-10-16T02:04:58;99163.88;;;16.18;86.52
23953;BME280;12163;49.316;6.092;2022-10-16T02:07:28;99167.06;;;16.20;86.67
23953;BME280;12163;49.316;6.092;2022-10-16T02:09:55;99160.84;;;16.20;86.70
23953;BME280;12163;49.316;6.092;2022-10-16T02:12:31;99161.97;;;16.19;86.30
23953;BME280;12163;49.316;6.092;2022-10-16T02:14:59;99153.81;;;16.19;86.52
23953;BME280;12163;49.316;6.092;2022-10-16T02:17:26;99162.28;;;16.17;86.04
23953;BME280;12163;49.316;6.092;2022-10-16T02:19:54;99168.56;;;16.18;86.41
23953;BME280;12163;49.316;6.092;2022-10-16T02:22:30;99165.47;;;16.19;86.19
23953;BME280;12163;49.316;6.092;2022-10-16T02:25:06;99165.47;;;16.19;86.60
23953;BME280;12163;49.316;6.092;2022-10-16T02:30:49;99158.31;;;16.15;86.57
23953;BME280;12163;49.316;6.092;2022-10-16T02:33:19;99158.44;;;16.18;86.37
23953;BME280;12163;49.316;6.092;2022-10-16T02:35:48;99152.69;;;16.20;86.50
23953;BME280;12163;49.316;6.092;2022-10-16T02:38:17;99142.91;;;16.19;85.98
23953;BME280;12163;49.316;6.092;2022-10-16T02:40:45;99151.09;;;16.19;86.23
23953;BME280;12163;49.316;6.092;2022-10-16T02:43:12;99142.56;;;16.20;86.38
23953;BME280;12163;49.316;6.092;2022-10-16T02:45:39;99158.44;;;16.18;86.62
23953;BME280;12163;49.316;6.092;2022-10-16T02:48:06;99158.44;;;16.18;86.41
23953;BME280;12163;49.316;6.092;2022-10-16T02:50:33;99167.41;;;16.19;86.89
23953;BME280;12163;49.316;6.092;2022-10-16T02:53:00;99173.66;;;16.19;86.36
23953;BME280;12163;49.316;6.092;2022-10-16T02:55:27;99171.41;;;16.21;86.39
23953;BME280;12163;49.316;6.092;2022-10-16T02:57:55;99175.25;;;16.20;86.52
23953;BME280;12163;49.316;6.092;2022-10-16T03:00:22;99174.16;;;16.21;86.34
23953;BME280;12163;49.316;6.092;2022-10-16T03:02:48;99176.38;;;16.19;86.34
23953;BME280;12163;49.316;6.092;2022-10-16T03:05:15;99169.47;;;16.22;86.78
23953;BME280;12163;49.316;6.092;2022-10-16T03:07:42;99166.44;;;16.23;86.24
23953;BME280;12163;49.316;6.092;2022-10-16T03:10:09;99157.16;;;16.24;86.39
23953;BME280;12163;49.316;6.092;2022-10-16T03:12:35;99160.34;;;16.26;86.33
23953;BME280;12163;49.316;6.092;2022-10-16T03:15:02;99159.97;;;16.28;86.75
23953;BME280;12163;49.316;6.092;2022-10-16T03:17:29;99153.41;;;16.29;86.84
23953;BME280;12163;49.316;6.092;2022-10-16T03:19:56;99150.69;;;16.29;86.71
23953;BME280;12163;49.316;6.092;2022-10-16T03:22:22;99159.19;;;16.27;86.83
23953;BME280;12163;49.316;6.092;2022-10-16T03:24:49;99159.50;;;16.26;87.00
23953;BME280;12163;49.316;6.092;2022-10-16T03:27:15;99153.28;;;16.25;86.85
23953;BME280;12163;49.316;6.092;2022-10-16T03:29:42;99153.28;;;16.25;86.71
23953;BME280;12163;49.316;6.092;2022-10-16T03:32:09;99172.34;;;16.25;86.95
23953;BME280;12163;49.316;6.092;2022-10-16T03:34:35;99162.13;;;16.22;86.91
23953;BME280;12163;49.316;6.092;2022-10-16T03:37:02;99179.59;;;16.21;86.72
23953;BME280;12163;49.316;6.092;2022-10-16T03:39:29;99177.97;;;16.20;87.16
23953;BME280;12163;49.316;6.092;2022-10-16T03:41:55;99183.41;;;16.20;87.49
23953;BME280;12163;49.316;6.092;2022-10-16T03:44:22;99180.06;;;16.23;87.06
23953;BME280;12163;49.316;6.092;2022-10-16T03:46:48;99174.25;;;16.25;87.39
23953;BME280;12163;49.316;6.092;2022-10-16T03:49:15;99176.31;;;16.28;86.92
23953;BME280;12163;49.316;6.092;2022-10-16T03:51:42;99176.00;;;16.29;86.91
23953;BME280;12163;49.316;6.092;2022-10-16T03:54:09;99159.81;;;16.33;86.34
23953;BME280;12163;49.316;6.092;2022-10-16T03:56:36;99156.78;;;16.34;87.00
23953;BME280;12163;49.316;6.092;2022-10-16T03:59:02;99166.22;;;16.37;86.23
23953;BME280;12163;49.316;6.092;2022-10-16T04:01:29;99167.81;;;16.38;86.75
23953;BME280;12163;49.316;6.092;2022-10-16T04:03:56;99165.41;;;16.36;86.54
23953;BME280;12163;49.316;6.092;2022-10-16T04:06:22;99180.16;;;16.35;86.83
23953;BME280;12163;49.316;6.092;2022-10-16T04:08:49;99170.69;;;16.33;87.35
23953;BME280;12163;49.316;6.092;2022-10-16T04:11:15;99174.19;;;16.33;86.69
23953;BME280;12163;49.316;6.092;2022-10-16T04:13:42;99166.03;;;16.33;87.05
23953;BME280;12163;49.316;6.092;2022-10-16T04:16:08;99166.03;;;16.33;87.31
23953;BME280;12163;49.316;6.092;2022-10-16T04:18:35;99165.25;;;16.33;86.59
23953;BME280;12163;49.316;6.092;2022-10-16T04:21:06;99173.75;;;16.31;86.99
23953;BME280;12163;49.316;6.092;2022-10-16T04:23:32;99167.66;;;16.34;87.07
23953;BME280;12163;49.316;6.092;2022-10-16T04:25:59;99185.44;;;16.32;87.42
23953;BME280;12163;49.316;6.092;2022-10-16T04:28:27;99171.03;;;16.31;87.67
23953;BME280;12163;49.316;6.092;2022-10-16T04:30:54;99168.28;;;16.31;86.93
23953;BME280;12163;49.316;6.092;2022-10-16T04:33:20;99176.16;;;16.33;87.75
23953;BME280;12163;49.316;6.092;2022-10-16T04:35:47;99172.63;;;16.32;87.77
23953;BME280;12163;49.316;6.092;2022-10-16T04:38:13;99184.00;;;16.34;87.52
23953;BME280;12163;49.316;6.092;2022-10-16T04:40:42;99180.16;;;16.35;87.99
23953;BME280;12163;49.316;6.092;2022-10-16T04:43:09;99184.47;;;16.36;87.94
23953;BME280;12163;49.316;6.092;2022-10-16T04:45:35;99180.59;;;16.37;88.31
23953;BME280;12163;49.316;6.092;2022-10-16T04:48:02;99176.28;;;16.36;88.20
23953;BME280;12163;49.316;6.092;2022-10-16T04:50:29;99182.09;;;16.35;87.51
23953;BME280;12163;49.316;6.092;2022-10-16T04:52:55;99180.59;;;16.37;88.26
23953;BME280;12163;49.316;6.092;2022-10-16T04:55:22;99172.72;;;16.44;87.58
23953;BME280;12163;49.316;6.092;2022-10-16T04:57:48;99178.38;;;16.60;87.56
23953;BME280;12163;49.316;6.092;2022-10-16T05:00:15;99177.88;;;16.78;86.89
23953;BME280;12163;49.316;6.092;2022-10-16T05:02:42;99182.94;;;16.88;85.49
23953;BME280;12163;49.316;6.092;2022-10-16T05:05:09;99182.50;;;16.98;84.80
23953;BME280;12163;49.316;6.092;2022-10-16T05:07:35;99188.19;;;17.05;84.73
23953;BME280;12163;49.316;6.092;2022-10-16T05:10:02;99202.97;;;17.04;84.18
23953;BME280;12163;49.316;6.092;2022-10-16T05:12:29;99205.47;;;17.09;84.18
23953;BME280;12163;49.316;6.092;2022-10-16T05:14:55;99212.34;;;17.15;83.75
23953;BME280;12163;49.316;6.092;2022-10-16T05:17:25;99210.00;;;17.05;83.62
23953;BME280;12163;49.316;6.092;2022-10-16T05:19:53;99219.00;;;16.85;83.88
23953;BME280;12163;49.316;6.092;2022-10-16T05:22:20;99218.72;;;16.66;84.08
23953;BME280;12163;49.316;6.092;2022-10-16T05:24:47;99214.31;;;16.53;85.03
23953;BME280;12163;49.316;6.092;2022-10-16T05:27:14;99220.81;;;16.61;85.93
23953;BME280;12163;49.316;6.092;2022-10-16T05:29:46;99210.31;;;16.71;86.27
23953;BME280;12163;49.316;6.092;2022-10-16T05:32:17;99210.81;;;16.85;85.01
23953;BME280;12163;49.316;6.092;2022-10-16T05:34:44;99207.50;;;17.00;85.23
23953;BME280;12163;49.316;6.092;2022-10-16T05:37:12;99202.09;;;17.12;84.65
23953;BME280;12163;49.316;6.092;2022-10-16T05:39:39;99204.38;;;17.22;84.04
23953;BME280;12163;49.316;6.092;2022-10-16T05:42:06;99211.91;;;17.25;82.74
23953;BME280;12163;49.316;6.092;2022-10-16T05:44:32;99215.91;;;17.07;82.67
23953;BME280;12163;49.316;6.092;2022-10-16T05:47:04;99211.78;;;16.89;83.65
23953;BME280;12163;49.316;6.092;2022-10-16T05:49:30;99220.34;;;16.79;83.96
23953;BME280;12163;49.316;6.092;2022-10-16T05:51:57;99220.34;;;16.79;84.30
23953;BME280;12163;49.316;6.092;2022-10-16T05:54:23;99217.69;;;16.91;85.14
23953;BME280;12163;49.316;6.092;2022-10-16T05:56:50;99230.22;;;17.04;84.14
23953;BME280;12163;49.316;6.092;2022-10-16T05:59:17;99224.56;;;17.09;83.85
23953;BME280;12163;49.316;6.092;2022-10-16T06:01:43;99235.69;;;17.04;83.79
23953;BME280;12163;49.316;6.092;2022-10-16T06:04:10;99239.28;;;16.96;83.52
23953;BME280;12163;49.316;6.092;2022-10-16T06:06:42;99242.34;;;16.94;83.85
23953;BME280;12163;49.316;6.092;2022-10-16T06:09:09;99246.13;;;17.02;83.37
23953;BME280;12163;49.316;6.092;2022-10-16T06:11:36;99241.41;;;17.11;83.69
23953;BME280;12163;49.316;6.092;2022-10-16T06:14:02;99240.53;;;17.19;83.03
23953;BME280;12163;49.316;6.092;2022-10-16T06:16:35;99243.94;;;17.28;83.06
23953;BME280;12163;49.316;6.092;2022-10-16T06:19:03;99247.34;;;17.25;81.78
23953;BME280;12163;49.316;6.092;2022-10-16T06:21:32;99241.50;;;17.14;82.25
23953;BME280;12163;49.316;6.092;2022-10-16T06:23:59;99244.66;;;17.04;82.10
23953;BME280;12163;49.316;6.092;2022-10-16T06:26:27;99250.19;;;16.96;82.67
23953;BME280;12163;49.316;6.092;2022-10-16T06:28:56;99246.53;;;16.92;83.25
23953;BME280;12163;49.316;6.092;2022-10-16T06:31:23;99256.84;;;16.87;83.96
23953;BME280;12163;49.316;6.092;2022-10-16T06:33:54;99262.16;;;16.83;84.52
23953;BME280;12163;49.316;6.092;2022-10-16T06:36:21;99255.44;;;16.81;84.72
23953;BME280;12163;49.316;6.092;2022-10-16T06:38:48;99263.16;;;16.79;84.73
23953;BME280;12163;49.316;6.092;2022-10-16T06:41:17;99271.66;;;16.77;85.38
23953;BME280;12163;49.316;6.092;2022-10-16T06:43:46;99275.50;;;16.76;85.18
23953;BME280;12163;49.316;6.092;2022-10-16T06:46:16;99276.66;;;16.75;85.26
23953;BME280;12163;49.316;6.092;2022-10-16T06:48:43;99284.00;;;16.75;85.49
23953;BME280;12163;49.316;6.092;2022-10-16T06:51:20;99283.88;;;16.71;85.63
23953;BME280;12163;49.316;6.092;2022-10-16T06:53:52;99289.00;;;16.73;86.10
23953;BME280;12163;49.316;6.092;2022-10-16T06:56:29;99293.00;;;16.75;86.56
23953;BME280;12163;49.316;6.092;2022-10-16T06:58:58;99301.63;;;16.77;86.94
23953;BME280;12163;49.316;6.092;2022-10-16T07:01:24;99304.03;;;16.79;87.10
23953;BME280;12163;49.316;6.092;2022-10-16T07:03:52;99302.09;;;16.79;86.37
23953;BME280;12163;49.316;6.092;2022-10-16T07:06:21;99300.19;;;16.80;87.30
23953;BME280;12163;49.316;6.092;2022-10-16T07:08:48;99309.97;;;16.81;87.05
23953;BME280;12163;49.316;6.092;2022-10-16T07:11:17;99315.06;;;16.82;87.02
23953;BME280;12163;49.316;6.092;2022-10-16T07:13:44;99322.09;;;16.83;86.90
23953;BME280;12163;49.316;6.092;2022-10-16T07:16:21;99324.50;;;16.85;86.66
23953;BME280;12163;49.316;6.092;2022-10-16T07:18:48;99330.44;;;16.87;86.64
23953;BME280;12163;49.316;6.092;2022-10-16T07:21:17;99337.16;;;16.89;86.88
23953;BME280;12163;49.316;6.092;2022-10-16T07:23:50;99340.34;;;16.91;87.38
23953;BME280;12163;49.316;6.092;2022-10-16T07:26:16;99337.63;;;16.91;87.20
23953;BME280;12163;49.316;6.092;2022-10-16T07:28:43;99339.00;;;16.97;86.88
23953;BME280;12163;49.316;6.092;2022-10-16T07:31:12;99345.84;;;17.03;87.52
23953;BME280;12163;49.316;6.092;2022-10-16T07:33:40;99352.69;;;17.09;86.61
23953;BME280;12163;49.316;6.092;2022-10-16T07:36:10;99358.75;;;17.14;86.99
23953;BME280;12163;49.316;6.092;2022-10-16T07:38:41;99365.28;;;17.22;86.86
23953;BME280;12163;49.316;6.092;2022-10-16T07:41:13;99361.88;;;17.25;86.51
23953;BME280;12163;49.316;6.092;2022-10-16T07:43:44;99364.16;;;17.23;86.09
23953;BME280;12163;49.316;6.092;2022-10-16T07:46:11;99374.69;;;17.33;86.18
23953;BME280;12163;49.316;6.092;2022-10-16T07:48:38;99370.84;;;17.34;86.06
23953;BME280;12163;49.316;6.092;2022-10-16T07:51:06;99369.22;;;17.33;85.41
23953;BME280;12163;49.316;6.092;2022-10-16T07:53:33;99373.22;;;17.35;85.55
23953;BME280;12163;49.316;6.092;2022-10-16T07:56:02;99383.81;;;17.37;84.80
23953;BME280;12163;49.316;6.092;2022-10-16T07:58:29;99383.47;;;17.38;84.68
23953;BME280;12163;49.316;6.092;2022-10-16T08:00:56;99378.16;;;17.42;85.23
23953;BME280;12163;49.316;6.092;2022-10-16T08:03:23;99387.47;;;17.41;84.23
23953;BME280;12163;49.316;6.092;2022-10-16T08:05:50;99383.16;;;17.40;85.17
23953;BME280;12163;49.316;6.092;2022-10-16T08:08:18;99382.78;;;17.41;85.11
23953;BME280;12163;49.316;6.092;2022-10-16T08:10:45;99387.25;;;17.46;85.02
23953;BME280;12163;49.316;6.092;2022-10-16T08:13:11;99390.72;;;17.55;84.67
23953;BME280;12163;49.316;6.092;2022-10-16T08:15:42;99385.84;;;17.60;84.43
23953;BME280;12163;49.316;6.092;2022-10-16T08:18:10;99400.22;;;17.69;84.41
23953;BME280;12163;49.316;6.092;2022-10-16T08:20:38;99399.03;;;17.79;83.96
23953;BME280;12163;49.316;6.092;2022-10-16T08:23:05;99404.84;;;17.89;83.56
23953;BME280;12163;49.316;6.092;2022-10-16T08:25:34;99393.50;;;17.99;82.83
23953;BME280;12163;49.316;6.092;2022-10-16T08:28:06;99397.50;;;18.14;82.68
23953;BME280;12163;49.316;6.092;2022-10-16T08:30:33;99399.47;;;18.25;82.57
23953;BME280;12163;49.316;6.092;2022-10-16T08:33:00;99413.97;;;18.38;82.58
23953;BME280;12163;49.316;6.092;2022-10-16T08:35:28;99420.16;;;18.47;81.81
23953;BME280;12163;49.316;6.092;2022-10-16T08:37:54;99414.00;;;18.50;80.97
23953;BME280;12163;49.316;6.092;2022-10-16T08:40:26;99413.34;;;18.53;81.02
23953;BME280;12163;49.316;6.092;2022-10-16T08:51:02;99425.19;;;18.57;80.91
23953;BME280;12163;49.316;6.092;2022-10-16T08:53:34;99433.72;;;18.55;81.02
23953;BME280;12163;49.316;6.092;2022-10-16T08:56:04;99428.13;;;18.52;80.78
23953;BME280;12163;49.316;6.092;2022-10-16T08:58:32;99431.31;;;18.54;81.11
23953;BME280;12163;49.316;6.092;2022-10-16T09:01:04;99429.50;;;18.58;81.76
23953;BME280;12163;49.316;6.092;2022-10-16T09:12:09;99439.19;;;18.55;80.93
23953;BME280;12163;49.316;6.092;2022-10-16T09:15:20;99439.97;;;18.44;80.86
23953;BME280;12163;49.316;6.092;2022-10-16T09:17:40;99439.72;;;18.37;81.42
23953;BME280;12163;49.316;6.092;2022-10-16T09:20:19;99450.19;;;18.35;82.30
23953;BME280;12163;49.316;6.092;2022-10-16T09:22:53;99440.41;;;18.34;82.48
23953;BME280;12163;49.316;6.092;2022-10-16T09:25:21;99439.25;;;18.35;82.11
23953;BME280;12163;49.316;6.092;2022-10-16T09:27:56;99444.72;;;18.35;82.44
23953;BME280;12163;49.316;6.092;2022-10-16T09:30:26;99445.84;;;18.34;81.92
23953;BME280;12163;49.316;6.092;2022-10-16T09:32:54;99443.25;;;18.37;82.77
23953;BME280;12163;49.316;6.092;2022-10-16T09:35:37;99445.09;;;18.45;82.91
23953;BME280;12163;49.316;6.092;2022-10-16T09:38:05;99454.31;;;18.53;82.59
23953;BME280;12163;49.316;6.092;2022-10-16T09:40:34;99452.06;;;18.55;81.97
23953;BME280;12163;49.316;6.092;2022-10-16T09:43:42;99445.31;;;18.52;82.09
23953;BME280;12163;49.316;6.092;2022-10-16T09:46:09;99450.22;;;18.59;81.69
23953;BME280;12163;49.316;6.092;2022-10-16T09:48:49;99450.03;;;18.87;80.17
23953;BME280;12163;49.316;6.092;2022-10-16T09:51:29;99457.41;;;18.75;81.14
23953;BME280;12163;49.316;6.092;2022-10-16T09:53:59;99461.28;;;18.74;81.18
23953;BME280;12163;49.316;6.092;2022-10-16T09:56:31;99468.56;;;18.70;81.14
23953;BME280;12163;49.316;6.092;2022-10-16T09:59:08;99468.22;;;18.60;81.31
23953;BME280;12163;49.316;6.092;2022-10-16T10:01:37;99460.13;;;18.51;81.12
23953;BME280;12163;49.316;6.092;2022-10-16T10:04:05;99461.47;;;18.45;81.07
23953;BME280;12163;49.316;6.092;2022-10-16T10:06:40;99459.28;;;18.39;81.84
23953;BME280;12163;49.316;6.092;2022-10-16T10:09:22;99461.13;;;18.35;82.04
23953;BME280;12163;49.316;6.092;2022-10-16T10:11:59;99454.50;;;18.36;82.38
23953;BME280;12163;49.316;6.092;2022-10-16T10:14:35;99472.84;;;18.35;82.06
23953;BME280;12163;49.316;6.092;2022-10-16T10:19:47;99482.72;;;18.28;81.48
23953;BME280;12163;49.316;6.092;2022-10-16T10:24:54;99471.25;;;18.34;82.59
23953;BME280;12163;49.316;6.092;2022-10-16T10:27:26;99487.75;;;18.38;81.77
23953;BME280;12163;49.316;6.092;2022-10-16T10:41:13;99475.53;;;18.68;82.39
23953;BME280;12163;49.316;6.092;2022-10-16T10:46:35;99476.00;;;18.70;81.85
23953;BME280;12163;49.316;6.092;2022-10-16T10:54:49;99464.97;;;18.78;81.71
23953;BME280;12163;49.316;6.092;2022-10-16T11:00:40;99466.78;;;18.86;81.31
23953;BME280;12163;49.316;6.092;2022-10-16T11:03:51;99454.25;;;18.85;81.35
23953;BME280;12163;49.316;6.092;2022-10-16T11:06:25;99453.22;;;18.89;81.81
23953;BME280;12163;49.316;6.092;2022-10-16T11:08:58;99451.84;;;18.95;81.22
23953;BME280;12163;49.316;6.092;2022-10-16T11:11:35;99458.47;;;18.94;81.22
23953;BME280;12163;49.316;6.092;2022-10-16T11:16:39;99460.75;;;18.92;81.56
23953;BME280;12163;49.316;6.092;2022-10-16T11:19:22;99455.03;;;18.97;81.25
23953;BME280;12163;49.316;6.092;2022-10-16T11:22:01;99459.03;;;19.00;81.04
23953;BME280;12163;49.316;6.092;2022-10-16T11:27:04;99454.81;;;19.02;81.07
23953;BME280;12163;49.316;6.092;2022-10-16T11:29:35;99447.75;;;19.01;80.93
23953;BME280;12163;49.316;6.092;2022-10-16T11:32:25;99447.66;;;18.98;81.18
23953;BME280;12163;49.316;6.092;2022-10-16T11:34:58;99433.50;;;18.96;80.83
23953;BME280;12163;49.316;6.092;2022-10-16T11:37:42;99431.81;;;18.91;81.41
23953;BME280;12163;49.316;6.092;2022-10-16T11:42:54;99447.06;;;18.92;81.63
23953;BME280;12163;49.316;6.092;2022-10-16T11:45:42;99441.16;;;18.90;81.94
23953;BME280;12163;49.316;6.092;2022-10-16T11:48:27;99440.69;;;18.88;81.76
23953;BME280;12163;49.316;6.092;2022-10-16T11:51:02;99449.00;;;18.92;81.92
23953;BME280;12163;49.316;6.092;2022-10-16T11:56:03;99440.34;;;19.02;81.90
23953;BME280;12163;49.316;6.092;2022-10-16T11:58:35;99439.44;;;19.10;81.66
23953;BME280;12163;49.316;6.092;2022-10-16T12:06:52;99452.91;;;19.27;81.57
23953;BME280;12163;49.316;6.092;2022-10-16T12:09:26;99450.72;;;19.32;81.08
23953;BME280;12163;49.316;6.092;2022-10-16T12:11:53;99444.13;;;19.33;81.34
23953;BME280;12163;49.316;6.092;2022-10-16T12:14:21;99445.47;;;19.27;80.56
23953;BME280;12163;49.316;6.092;2022-10-16T12:16:55;99448.44;;;19.22;81.08
23953;BME280;12163;49.316;6.092;2022-10-16T12:19:23;99442.84;;;19.19;81.02
23953;BME280;12163;49.316;6.092;2022-10-16T12:21:52;99447.09;;;19.16;81.62
23953;BME280;12163;49.316;6.092;2022-10-16T12:24:32;99440.25;;;19.10;81.41
23953;BME280;12163;49.316;6.092;2022-10-16T12:27:00;99440.56;;;19.09;81.99
23953;BME280;12163;49.316;6.092;2022-10-16T12:31:56;99442.97;;;19.10;82.37
23953;BME280;12163;49.316;6.092;2022-10-16T12:36:53;99444.81;;;19.18;82.73
23953;BME280;12163;49.316;6.092;2022-10-16T12:39:24;99449.13;;;19.19;82.24
23953;BME280;12163;49.316;6.092;2022-10-16T12:42:02;99444.94;;;19.22;82.43
23953;BME280;12163;49.316;6.092;2022-10-16T12:44:33;99442.66;;;19.24;82.61
23953;BME280;12163;49.316;6.092;2022-10-16T12:47:01;99438.41;;;19.26;82.48
23953;BME280;12163;49.316;6.092;2022-10-16T12:49:29;99441.38;;;19.33;82.47
23953;BME280;12163;49.316;6.092;2022-10-16T12:51:57;99444.13;;;19.33;81.87
23953;BME280;12163;49.316;6.092;2022-10-16T12:54:37;99439.31;;;19.30;81.91
23953;BME280;12163;49.316;6.092;2022-10-16T13:08:29;99453.69;;;19.39;81.95
23953;BME280;12163;49.316;6.092;2022-10-16T13:11:23;99450.47;;;19.37;82.15
23953;BME280;12163;49.316;6.092;2022-10-16T13:28:01;99443.50;;;19.40;82.32
23953;BME280;12163;49.316;6.092;2022-10-16T13:30:30;99442.34;;;19.53;82.08
23953;BME280;12163;49.316;6.092;2022-10-16T13:33:14;99431.00;;;19.66;81.74
23953;BME280;12163;49.316;6.092;2022-10-16T13:35:53;99436.50;;;19.94;81.82
23953;BME280;12163;49.316;6.092;2022-10-16T13:38:22;99415.38;;;20.22;80.83
23953;BME280;12163;49.316;6.092;2022-10-16T13:43:28;99417.19;;;20.45;78.79
23953;BME280;12163;49.316;6.092;2022-10-16T13:46:04;99414.78;;;20.59;78.11
23953;BME280;12163;49.316;6.092;2022-10-16T13:48:33;99417.97;;;20.61;77.81
23953;BME280;12163;49.316;6.092;2022-10-16T13:51:20;99413.31;;;20.61;77.09
23953;BME280;12163;49.316;6.092;2022-10-16T13:53:46;99414.72;;;20.55;76.66
23953;BME280;12163;49.316;6.092;2022-10-16T13:56:26;99415.34;;;20.49;76.84
23953;BME280;12163;49.316;6.092;2022-10-16T13:59:03;99421.53;;;20.46;77.30
23953;BME280;12163;49.316;6.092;2022-10-16T14:01:40;99411.44;;;20.50;77.41
23953;BME280;12163;49.316;6.092;2022-10-16T14:04:09;99414.09;;;20.62;77.88
23953;BME280;12163;49.316;6.092;2022-10-16T14:06:43;99413.19;;;20.73;77.33
23953;BME280;12163;49.316;6.092;2022-10-16T14:12:06;99419.22;;;20.79;76.52
23953;BME280;12163;49.316;6.092;2022-10-16T14:14:41;99416.75;;;20.74;76.31
23953;BME280;12163;49.316;6.092;2022-10-16T14:17:20;99418.94;;;20.68;76.52
23953;BME280;12163;49.316;6.092;2022-10-16T14:19:49;99416.94;;;20.65;76.58
23953;BME280;12163;49.316;6.092;2022-10-16T14:22:35;99413.41;;;20.65;76.66
23953;BME280;12163;49.316;6.092;2022-10-16T14:25:20;99407.28;;;20.71;76.57
23953;BME280;12163;49.316;6.092;2022-10-16T14:27:59;99409.84;;;20.80;76.43
23953;BME280;12163;49.316;6.092;2022-10-16T14:30:28;99406.03;;;21.00;76.62
23953;BME280;12163;49.316;6.092;2022-10-16T14:32:57;99403.63;;;21.14;75.80
23953;BME280;12163;49.316;6.092;2022-10-16T14:37:55;99405.38;;;21.22;75.29
23953;BME280;12163;49.316;6.092;2022-10-16T14:40:29;99394.09;;;21.27;75.38
23953;BME280;12163;49.316;6.092;2022-10-16T14:42:57;99391.44;;;21.65;75.07
23953;BME280;12163;49.316;6.092;2022-10-16T14:45:27;99392.94;;;22.41;72.91
23953;BME280;12163;49.316;6.092;2022-10-16T14:47:57;99394.53;;;23.13;70.87
23953;BME280;12163;49.316;6.092;2022-10-16T14:50:25;99394.41;;;23.91;68.27
23953;BME280;12163;49.316;6.092;2022-10-16T14:52:51;99385.78;;;24.69;65.43
23953;BME280;12163;49.316;6.092;2022-10-16T14:55:18;99384.06;;;25.08;63.02
23953;BME280;12163;49.316;6.092;2022-10-16T14:57:45;99378.41;;;25.48;61.49
23953;BME280;12163;49.316;6.092;2022-10-16T15:02:39;99371.56;;;26.02;58.92
23953;BME280;12163;49.316;6.092;2022-10-16T15:05:19;99369.59;;;26.06;58.36
23953;BME280;12163;49.316;6.092;2022-10-16T15:07:46;99365.28;;;26.16;57.75
23953;BME280;12163;49.316;6.092;2022-10-16T15:10:13;99370.03;;;26.22;57.67
23953;BME280;12163;49.316;6.092;2022-10-16T15:12:40;99381.09;;;26.22;57.70